Time;durP1;ratioP1;P1;durP2;ratioP2;P2;SDS_P1;SDS_P2;PMS_P1;PMS_P2;Temp;Humidity;BMP_temperature;BMP_pressure;BME280_temperature;BME280_humidity;BME280_pressure;Samples;Min_cycle;Max_cycle;Signal;HPM_P1;HPM_P2
2023/02/28 00:00:46;;;;;;;;;;;21.10;53.10;;;;;;1569335;74;1962;-60
2023/02/28 00:02:48;;;;;;;;;;;21.10;53.30;;;;;;1562288;74;713;-60
2023/02/28 00:04:52;;;;;;;;;;;21.00;53.50;;;;;;1560863;74;1577;-61
2023/02/28 00:06:53;;;;;;;;;;;21.00;53.60;;;;;;1553286;74;1645;-63
2023/02/28 00:08:55;;;;;;;;;;;21.00;53.70;;;;;;1568532;74;781;-61
2023/02/28 00:10:59;;;;;;;;;;;21.00;53.80;;;;;;1562606;74;1133;-60
2023/02/28 00:13:02;;;;;;;;;;;21.00;53.70;;;;;;1564350;74;1846;-61
2023/02/28 00:15:05;;;;;;;;;;;21.10;53.50;;;;;;1567667;74;693;-60
2023/02/28 00:17:07;;;;;;;;;;;21.20;53.00;;;;;;1568068;74;1004;-61
2023/02/28 00:19:09;;;;;;;;;;;21.30;52.80;;;;;;1561810;74;1664;-60
2023/02/28 00:21:11;;;;;;;;;;;21.40;52.50;;;;;;1559115;74;1935;-60
2023/02/28 00:23:13;;;;;;;;;;;21.40;52.40;;;;;;1563172;74;629;-60
2023/02/28 00:25:15;;;;;;;;;;;21.40;52.20;;;;;;1563985;74;765;-61
2023/02/28 00:27:17;;;;;;;;;;;21.40;52.40;;;;;;1552020;74;701;-60
2023/02/28 00:29:19;;;;;;;;;;;21.40;52.30;;;;;;1563174;74;761;-60
2023/02/28 00:31:21;;;;;;;;;;;21.40;52.30;;;;;;1576182;74;1085;-60
2023/02/28 00:33:23;;;;;;;;;;;21.50;52.30;;;;;;1554426;74;652;-59
2023/02/28 00:35:24;;;;;;;;;;;21.40;52.20;;;;;;1558306;74;703;-60
2023/02/28 00:37:26;;;;;;;;;;;21.40;52.20;;;;;;1563701;74;695;-59
2023/02/28 00:39:28;;;;;;;;;;;21.40;52.10;;;;;;1565251;74;737;-60
2023/02/28 00:41:30;;;;;;;;;;;21.50;52.20;;;;;;1560149;74;1950;-60
2023/02/28 00:43:35;;;;;;;;;;;21.50;52.20;;;;;;1553607;74;724;-61
2023/02/28 00:45:37;;;;;;;;;;;21.50;52.10;;;;;;1554744;74;1459;-60
2023/02/28 00:47:39;;;;;;;;;;;21.40;52.30;;;;;;1545514;74;803;-60
2023/02/28 00:49:41;;;;;;;;;;;21.40;52.50;;;;;;1554757;74;680;-59
2023/02/28 00:51:43;;;;;;;;;;;21.40;53.10;;;;;;1567180;74;1085;-59
2023/02/28 00:53:45;;;;;;;;;;;21.30;53.70;;;;;;1565174;74;685;-60
2023/02/28 00:55:46;;;;;;;;;;;21.20;53.80;;;;;;1559615;74;697;-60
2023/02/28 00:57:48;;;;;;;;;;;21.10;54.40;;;;;;1565945;74;702;-59
2023/02/28 00:59:50;;;;;;;;;;;21.10;54.20;;;;;;1568011;74;1550;-60
2023/02/28 01:01:52;;;;;;;;;;;21.20;53.80;;;;;;1549293;74;1940;-59
2023/02/28 01:03:54;;;;;;;;;;;21.10;54.00;;;;;;1546222;74;734;-60
2023/02/28 01:05:56;;;;;;;;;;;21.10;53.90;;;;;;1568324;74;698;-59
2023/02/28 01:07:58;;;;;;;;;;;21.10;54.30;;;;;;1566581;74;657;-60
2023/02/28 01:09:59;;;;;;;;;;;21.10;54.00;;;;;;1566355;74;652;-60
2023/02/28 01:12:01;;;;;;;;;;;21.10;54.10;;;;;;1562858;76;1137;-60
2023/02/28 01:14:03;;;;;;;;;;;21.10;54.20;;;;;;1566691;74;1544;-60
2023/02/28 01:16:06;;;;;;;;;;;21.20;53.80;;;;;;1557710;74;693;-60
2023/02/28 01:18:08;;;;;;;;;;;21.20;53.60;;;;;;1556553;74;679;-60
2023/02/28 01:20:10;;;;;;;;;;;21.30;53.40;;;;;;1569831;74;1934;-59
2023/02/28 01:22:12;;;;;;;;;;;21.30;53.40;;;;;;1553245;74;1149;-60
2023/02/28 01:24:14;;;;;;;;;;;21.40;53.50;;;;;;1563688;74;686;-59
2023/02/28 01:26:17;;;;;;;;;;;21.30;53.40;;;;;;1566269;74;719;-60
2023/02/28 01:28:18;;;;;;;;;;;21.30;53.30;;;;;;1558166;74;1602;-60
2023/02/28 01:30:20;;;;;;;;;;;21.30;53.20;;;;;;1558126;74;728;-60
2023/02/28 01:32:22;;;;;;;;;;;21.30;53.60;;;;;;1565871;74;1112;-59
2023/02/28 01:34:24;;;;;;;;;;;21.30;53.40;;;;;;1564488;74;693;-60
2023/02/28 01:36:26;;;;;;;;;;;21.20;53.40;;;;;;1573357;74;689;-60
2023/02/28 01:38:28;;;;;;;;;;;21.20;53.40;;;;;;1560016;74;679;-61
2023/02/28 01:40:30;;;;;;;;;;;21.10;53.40;;;;;;1555985;74;1949;-60
2023/02/28 01:42:32;;;;;;;;;;;21.10;53.40;;;;;;1554479;74;1597;-60
2023/02/28 01:44:51;;;;;;;;;;;21.20;53.50;;;;;;1564324;74;686;-60
2023/02/28 01:46:53;;;;;;;;;;;21.20;53.60;;;;;;1566228;74;696;-60
2023/02/28 01:48:57;;;;;;;;;;;21.20;53.80;;;;;;1563243;74;692;-59
2023/02/28 01:50:59;;;;;;;;;;;21.10;53.70;;;;;;1550802;74;1156;-60
2023/02/28 01:53:02;;;;;;;;;;;21.10;53.70;;;;;;1563938;74;632;-59
2023/02/28 01:55:04;;;;;;;;;;;21.10;53.90;;;;;;1551601;74;735;-59
2023/02/28 01:57:08;;;;;;;;;;;21.00;53.90;;;;;;1564870;74;1535;-59
2023/02/28 01:59:10;;;;;;;;;;;21.00;54.00;;;;;;1555448;74;712;-60
2023/02/28 02:01:20;;;;;;;;;;;21.00;54.20;;;;;;1563197;74;1934;-60
2023/02/28 02:03:18;;;;;;;;;;;21.00;54.30;;;;;;1560971;74;1752;-60
2023/02/28 02:05:20;;;;;;;;;;;20.90;54.40;;;;;;1558132;74;1663;-61
2023/02/28 02:07:22;;;;;;;;;;;21.00;54.60;;;;;;1560625;74;673;-60
2023/02/28 02:09:24;;;;;;;;;;;20.90;54.40;;;;;;1560243;74;685;-60
2023/02/28 02:11:29;;;;;;;;;;;20.90;54.60;;;;;;1565466;74;1552;-59
2023/02/28 02:13:49;;;;;;;;;;;20.90;54.70;;;;;;1563250;74;1771;-60
2023/02/28 02:16:09;;;;;;;;;;;20.80;54.60;;;;;;1566725;74;696;-61
2023/02/28 02:18:12;;;;;;;;;;;20.80;54.70;;;;;;1551018;74;713;-60
2023/02/28 02:20:16;;;;;;;;;;;20.90;54.90;;;;;;1566283;74;1823;-60
2023/02/28 02:22:36;;;;;;;;;;;20.80;55.00;;;;;;1544476;74;1948;-61
2023/02/28 02:24:42;;;;;;;;;;;20.80;55.30;;;;;;1555555;74;1236;-61
2023/02/28 02:26:49;;;;;;;;;;;20.80;55.40;;;;;;1559657;74;1386;-60
2023/02/28 02:28:56;;;;;;;;;;;20.80;55.40;;;;;;1557720;74;772;-60
2023/02/28 02:31:02;;;;;;;;;;;20.80;55.40;;;;;;1564006;74;1155;-61
2023/02/28 02:33:11;;;;;;;;;;;20.80;55.30;;;;;;1549136;74;697;-60
2023/02/28 02:35:30;;;;;;;;;;;20.80;55.20;;;;;;1575591;74;834;-60
2023/02/28 02:37:36;;;;;;;;;;;20.80;55.10;;;;;;1552809;74;693;-60
2023/02/28 02:39:45;;;;;;;;;;;20.90;55.10;;;;;;1552979;74;1378;-60
2023/02/28 02:41:49;;;;;;;;;;;20.90;54.90;;;;;;1547298;74;1937;-59
2023/02/28 02:43:56;;;;;;;;;;;20.90;55.60;;;;;;1553465;74;694;-60
2023/02/28 02:45:59;;;;;;;;;;;20.90;54.90;;;;;;1554918;74;678;-61
2023/02/28 02:48:01;;;;;;;;;;;20.90;54.70;;;;;;1561570;74;752;-59
2023/02/28 02:50:05;;;;;;;;;;;21.00;54.40;;;;;;1556745;74;712;-60
2023/02/28 02:52:08;;;;;;;;;;;21.00;54.30;;;;;;1568084;74;1470;-60
2023/02/28 02:54:11;;;;;;;;;;;21.10;54.10;;;;;;1558260;74;692;-60
2023/02/28 02:56:13;;;;;;;;;;;21.00;54.10;;;;;;1544789;74;749;-59
2023/02/28 02:58:15;;;;;;;;;;;21.00;54.40;;;;;;1560015;74;694;-59
2023/02/28 03:00:18;;;;;;;;;;;21.00;54.40;;;;;;1554645;74;689;-60
2023/02/28 03:02:20;;;;;;;;;;;20.90;54.50;;;;;;1552117;74;1961;-60
2023/02/28 03:04:22;;;;;;;;;;;20.90;54.50;;;;;;1544742;74;702;-59
2023/02/28 03:06:24;;;;;;;;;;;20.90;54.70;;;;;;1552307;74;1535;-60
2023/02/28 03:08:27;;;;;;;;;;;20.90;54.80;;;;;;1563664;74;679;-59
2023/02/28 03:10:33;;;;;;;;;;;20.80;55.10;;;;;;1554144;74;678;-59
2023/02/28 03:12:36;;;;;;;;;;;20.80;55.10;;;;;;1554634;74;694;-59
2023/02/28 03:14:43;;;;;;;;;;;20.80;54.90;;;;;;1553591;74;1012;-61
2023/02/28 03:16:47;;;;;;;;;;;20.80;55.00;;;;;;1551120;74;663;-61
2023/02/28 03:18:59;;;;;;;;;;;20.80;55.00;;;;;;1541595;74;698;-60
2023/02/28 03:21:09;;;;;;;;;;;20.70;55.20;;;;;;1554425;75;1948;-61
2023/02/28 03:23:12;;;;;;;;;;;20.70;55.20;;;;;;1539940;74;717;-61
2023/02/28 03:25:16;;;;;;;;;;;20.70;55.10;;;;;;1556918;74;704;-61
2023/02/28 03:27:19;;;;;;;;;;;20.70;55.30;;;;;;1556469;74;673;-60
2023/02/28 03:29:26;;;;;;;;;;;20.70;55.30;;;;;;1555564;74;701;-59
2023/02/28 03:31:28;;;;;;;;;;;20.70;55.20;;;;;;1555140;74;1862;-59
2023/02/28 03:33:35;;;;;;;;;;;20.70;55.10;;;;;;1576565;74;675;-59
2023/02/28 03:35:38;;;;;;;;;;;20.70;55.10;;;;;;1555593;74;2095;-59
2023/02/28 03:37:41;;;;;;;;;;;20.70;55.00;;;;;;1559314;74;706;-60
2023/02/28 03:39:44;;;;;;;;;;;20.80;55.00;;;;;;1557552;74;696;-60
2023/02/28 03:41:50;;;;;;;;;;;20.80;54.70;;;;;;1549666;74;1947;-61
2023/02/28 03:44:03;;;;;;;;;;;20.80;54.70;;;;;;1548115;74;1853;-59
2023/02/28 03:46:06;;;;;;;;;;;20.80;54.90;;;;;;1551389;74;1771;-60
2023/02/28 03:48:15;;;;;;;;;;;20.80;55.00;;;;;;1546391;74;682;-60
2023/02/28 03:50:21;;;;;;;;;;;20.70;54.90;;;;;;1548192;74;744;-59
2023/02/28 03:52:23;;;;;;;;;;;20.80;55.00;;;;;;1550086;74;1131;-61
2023/02/28 03:54:27;;;;;;;;;;;20.80;55.00;;;;;;1556674;74;689;-61
2023/02/28 03:56:30;;;;;;;;;;;20.70;54.90;;;;;;1558834;74;1693;-59
2023/02/28 03:58:50;;;;;;;;;;;20.70;55.00;;;;;;1557969;74;1756;-59
2023/02/28 04:00:54;;;;;;;;;;;20.80;54.90;;;;;;1560662;74;1135;-60
2023/02/28 04:02:55;;;;;;;;;;;20.80;55.00;;;;;;1554412;74;1921;-61
2023/02/28 04:04:58;;;;;;;;;;;20.80;54.80;;;;;;1562912;74;941;-59
2023/02/28 04:07:07;;;;;;;;;;;20.90;54.80;;;;;;1545209;74;729;-61
2023/02/28 04:09:10;;;;;;;;;;;20.90;54.80;;;;;;1561763;74;761;-60
2023/02/28 04:11:19;;;;;;;;;;;21.00;54.90;;;;;;1552945;74;1216;-60
2023/02/28 04:13:21;;;;;;;;;;;21.00;54.80;;;;;;1566456;74;732;-60
2023/02/28 04:15:24;;;;;;;;;;;21.00;54.80;;;;;;1550050;74;729;-59
2023/02/28 04:17:26;;;;;;;;;;;21.00;54.70;;;;;;1563151;74;1539;-60
2023/02/28 04:19:28;;;;;;;;;;;21.00;54.70;;;;;;1557556;74;744;-60
2023/02/28 04:21:30;;;;;;;;;;;21.00;54.50;;;;;;1559761;74;1960;-60
2023/02/28 04:23:32;;;;;;;;;;;21.10;54.70;;;;;;1569009;74;720;-61
2023/02/28 04:25:34;;;;;;;;;;;21.10;54.60;;;;;;1557884;74;710;-59
2023/02/28 04:27:36;;;;;;;;;;;21.00;54.60;;;;;;1575178;74;685;-59
2023/02/28 04:29:38;;;;;;;;;;;21.10;54.50;;;;;;1565995;74;712;-60
2023/02/28 04:31:39;;;;;;;;;;;21.10;54.80;;;;;;1564602;74;1554;-60
2023/02/28 04:33:42;;;;;;;;;;;21.00;55.00;;;;;;1567642;74;707;-60
2023/02/28 04:35:44;;;;;;;;;;;21.10;54.90;;;;;;1548145;74;697;-60
2023/02/28 04:37:45;;;;;;;;;;;21.00;54.80;;;;;;1563634;74;704;-59
2023/02/28 04:39:47;;;;;;;;;;;21.00;54.80;;;;;;1565656;74;743;-61
2023/02/28 04:41:49;;;;;;;;;;;21.00;54.70;;;;;;1553201;74;1959;-59
2023/02/28 04:43:52;;;;;;;;;;;21.10;54.90;;;;;;1569138;74;749;-62
2023/02/28 04:45:56;;;;;;;;;;;21.10;54.90;;;;;;1561777;74;1679;-60
2023/02/28 04:47:58;;;;;;;;;;;21.00;54.80;;;;;;1558638;74;731;-60
2023/02/28 04:50:00;;;;;;;;;;;21.10;55.10;;;;;;1571180;74;744;-61
2023/02/28 04:52:02;;;;;;;;;;;21.00;55.70;;;;;;1571590;74;1138;-61
2023/02/28 04:54:04;;;;;;;;;;;20.90;55.80;;;;;;1563439;74;709;-60
2023/02/28 04:56:06;;;;;;;;;;;20.80;55.90;;;;;;1562235;74;710;-59
2023/02/28 04:58:08;;;;;;;;;;;20.80;56.10;;;;;;1568582;74;678;-60
2023/02/28 05:00:11;;;;;;;;;;;20.80;56.20;;;;;;1562026;74;1566;-60
2023/02/28 05:02:13;;;;;;;;;;;20.80;56.50;;;;;;1562935;74;1937;-60
2023/02/28 05:04:15;;;;;;;;;;;20.80;56.40;;;;;;1552023;74;1093;-60
2023/02/28 05:06:17;;;;;;;;;;;20.70;56.70;;;;;;1551117;75;737;-61
2023/02/28 05:08:18;;;;;;;;;;;20.70;56.70;;;;;;1550433;75;759;-60
2023/02/28 05:10:20;;;;;;;;;;;20.70;57.10;;;;;;1544001;75;740;-60
2023/02/28 05:12:22;;;;;;;;;;;20.70;56.80;;;;;;1544482;75;1203;-59
2023/02/28 05:14:25;;;;;;;;;;;20.60;56.70;;;;;;1546898;75;1565;-60
2023/02/28 05:16:27;;;;;;;;;;;20.60;56.80;;;;;;1548850;75;716;-60
2023/02/28 05:18:28;;;;;;;;;;;20.60;56.70;;;;;;1545131;75;712;-60
2023/02/28 05:20:30;;;;;;;;;;;20.60;56.70;;;;;;1548359;75;1137;-60
2023/02/28 05:22:32;;;;;;;;;;;20.60;56.80;;;;;;1545566;75;1951;-58
2023/02/28 05:24:34;;;;;;;;;;;20.60;56.50;;;;;;1551448;75;745;-60
2023/02/28 05:26:36;;;;;;;;;;;20.70;56.50;;;;;;1548949;75;736;-60
2023/02/28 05:28:38;;;;;;;;;;;20.70;56.40;;;;;;1543309;75;1605;-60
2023/02/28 05:30:40;;;;;;;;;;;20.80;56.30;;;;;;1546592;75;1122;-60
2023/02/28 05:32:45;;;;;;;;;;;20.70;56.30;;;;;;1540666;75;649;-59
2023/02/28 05:34:47;;;;;;;;;;;20.70;56.50;;;;;;1543093;75;719;-61
2023/02/28 05:36:49;;;;;;;;;;;20.70;56.20;;;;;;1532152;75;715;-60
2023/02/28 05:38:51;;;;;;;;;;;20.80;56.20;;;;;;1543534;75;725;-60
2023/02/28 05:40:53;;;;;;;;;;;20.90;56.00;;;;;;1543163;75;1600;-59
2023/02/28 05:42:55;;;;;;;;;;;20.90;55.90;;;;;;1563720;75;1922;-59
2023/02/28 05:44:57;;;;;;;;;;;20.90;55.80;;;;;;1547439;75;787;-61
2023/02/28 05:46:58;;;;;;;;;;;20.90;55.80;;;;;;1559928;75;667;-59
2023/02/28 05:49:00;;;;;;;;;;;20.90;56.60;;;;;;1550754;75;753;-58
2023/02/28 05:51:02;;;;;;;;;;;20.90;56.50;;;;;;1553348;75;1157;-59
2023/02/28 05:53:04;;;;;;;;;;;20.80;56.30;;;;;;1552458;75;761;-59
2023/02/28 05:55:06;;;;;;;;;;;20.80;56.20;;;;;;1547605;75;1306;-59
2023/02/28 05:57:08;;;;;;;;;;;20.80;56.10;;;;;;1567576;75;752;-61
2023/02/28 05:59:10;;;;;;;;;;;20.80;56.20;;;;;;1552723;75;704;-59
2023/02/28 06:01:23;;;;;;;;;;;20.80;56.00;;;;;;1541950;75;1142;-60
2023/02/28 06:03:25;;;;;;;;;;;20.80;55.80;;;;;;1542938;75;1933;-60
2023/02/28 06:05:27;;;;;;;;;;;20.90;55.70;;;;;;1545086;75;690;-60
2023/02/28 06:07:29;;;;;;;;;;;20.90;55.50;;;;;;1543985;75;691;-59
2023/02/28 06:09:31;;;;;;;;;;;21.00;55.40;;;;;;1554683;75;1527;-61
2023/02/28 06:11:33;;;;;;;;;;;21.00;55.20;;;;;;1540815;75;1194;-60
2023/02/28 06:13:36;;;;;;;;;;;20.90;55.20;;;;;;1555688;75;748;-59
2023/02/28 06:15:38;;;;;;;;;;;21.00;55.10;;;;;;1555470;75;794;-61
2023/02/28 06:17:40;;;;;;;;;;;21.00;55.00;;;;;;1540627;75;738;-60
2023/02/28 06:19:42;;;;;;;;;;;21.00;54.90;;;;;;1556563;75;667;-60
2023/02/28 06:21:45;;;;;;;;;;;21.00;54.80;;;;;;1552186;75;1204;-61
2023/02/28 06:23:47;;;;;;;;;;;21.00;54.80;;;;;;1557966;75;1858;-60
2023/02/28 06:25:49;;;;;;;;;;;21.00;54.80;;;;;;1557388;75;715;-60
2023/02/28 06:27:51;;;;;;;;;;;21.00;54.80;;;;;;1561409;75;749;-61
2023/02/28 06:29:55;;;;;;;;;;;21.00;54.80;;;;;;1551729;75;725;-60
2023/02/28 06:31:57;;;;;;;;;;;21.00;54.90;;;;;;1547821;75;1146;-61
2023/02/28 06:33:59;;;;;;;;;;;21.00;54.90;;;;;;1535392;75;707;-61
2023/02/28 06:36:01;;;;;;;;;;;21.10;55.00;;;;;;1535465;75;699;-60
2023/02/28 06:38:03;;;;;;;;;;;21.00;55.00;;;;;;1549214;75;1564;-62
2023/02/28 06:40:06;;;;;;;;;;;21.00;55.10;;;;;;1563331;75;779;-62
2023/02/28 06:42:08;;;;;;;;;;;21.00;55.20;;;;;;1550964;75;1942;-62
2023/02/28 06:44:13;;;;;;;;;;;21.00;55.10;;;;;;1544143;75;774;-62
2023/02/28 06:46:15;;;;;;;;;;;21.00;55.00;;;;;;1547283;75;745;-62
2023/02/28 06:48:17;;;;;;;;;;;21.00;55.00;;;;;;1554617;75;747;-62
2023/02/28 06:50:20;;;;;;;;;;;21.00;55.00;;;;;;1544938;75;671;-63
2023/02/28 06:52:22;;;;;;;;;;;21.00;54.90;;;;;;1563926;75;1571;-63
2023/02/28 06:54:24;;;;;;;;;;;21.00;54.80;;;;;;1550060;75;667;-62
2023/02/28 06:56:26;;;;;;;;;;;21.00;54.90;;;;;;1541347;75;711;-62
2023/02/28 06:58:27;;;;;;;;;;;21.00;54.90;;;;;;1557027;75;673;-62
2023/02/28 07:00:29;;;;;;;;;;;21.00;54.70;;;;;;1553591;75;776;-62
2023/02/28 07:02:31;;;;;;;;;;;21.00;54.40;;;;;;1558742;75;1946;-62
2023/02/28 07:04:33;;;;;;;;;;;21.00;54.20;;;;;;1559672;74;1461;-62
2023/02/28 07:06:35;;;;;;;;;;;21.00;54.00;;;;;;1565249;74;1540;-61
2023/02/28 07:08:37;;;;;;;;;;;21.10;54.00;;;;;;1560742;74;678;-62
2023/02/28 07:10:39;;;;;;;;;;;21.10;53.90;;;;;;1571561;74;1199;-62
2023/02/28 07:12:41;;;;;;;;;;;21.10;53.80;;;;;;1546233;75;686;-62
2023/02/28 07:14:42;;;;;;;;;;;21.10;53.60;;;;;;1572755;74;720;-61
2023/02/28 07:16:45;;;;;;;;;;;21.10;53.50;;;;;;1573354;74;720;-62
2023/02/28 07:18:47;;;;;;;;;;;21.20;53.40;;;;;;1556317;74;659;-62
2023/02/28 07:20:49;;;;;;;;;;;21.20;53.40;;;;;;1577319;74;1574;-61
2023/02/28 07:22:56;;;;;;;;;;;21.20;53.30;;;;;;1588039;74;1945;-62
2023/02/28 07:24:54;;;;;;;;;;;21.10;53.30;;;;;;1560870;74;1438;-62
2023/02/28 07:26:56;;;;;;;;;;;21.10;53.20;;;;;;1575471;74;724;-62
2023/02/28 07:28:58;;;;;;;;;;;21.10;53.20;;;;;;1569306;74;746;-61
2023/02/28 07:31:04;;;;;;;;;;;21.20;53.20;;;;;;1561934;74;1130;-61
2023/02/28 07:33:06;;;;;;;;;;;21.10;53.10;;;;;;1572737;74;680;-63
2023/02/28 07:35:08;;;;;;;;;;;21.10;53.10;;;;;;1577198;74;1604;-61
2023/02/28 07:37:10;;;;;;;;;;;21.00;53.00;;;;;;1580095;74;731;-61
2023/02/28 07:39:12;;;;;;;;;;;21.10;53.10;;;;;;1571392;74;687;-61
2023/02/28 07:41:15;;;;;;;;;;;21.10;53.00;;;;;;1592837;74;1084;-62
2023/02/28 07:43:16;;;;;;;;;;;21.10;53.00;;;;;;1580185;74;1922;-61
2023/02/28 07:45:19;;;;;;;;;;;21.00;52.90;;;;;;1586250;74;719;-62
2023/02/28 07:47:21;;;;;;;;;;;21.10;53.00;;;;;;1579121;74;1586;-61
2023/02/28 07:49:23;;;;;;;;;;;21.00;52.90;;;;;;1562378;74;661;-62
2023/02/28 07:51:24;;;;;;;;;;;21.00;52.90;;;;;;1563657;74;1185;-62
2023/02/28 07:53:27;;;;;;;;;;;21.00;52.90;;;;;;1583464;74;744;-61
2023/02/28 07:55:29;;;;;;;;;;;21.10;53.00;;;;;;1586642;74;696;-62
2023/02/28 07:57:31;;;;;;;;;;;21.00;52.90;;;;;;1570771;74;691;-61
2023/02/28 07:59:33;;;;;;;;;;;21.10;53.00;;;;;;1573948;74;757;-62
2023/02/28 08:01:35;;;;;;;;;;;21.10;53.00;;;;;;1575323;74;1528;-62
2023/02/28 08:03:37;;;;;;;;;;;21.00;52.90;;;;;;1566152;74;1950;-62
2023/02/28 08:05:40;;;;;;;;;;;21.10;53.10;;;;;;1553380;74;1009;-61
2023/02/28 08:07:41;;;;;;;;;;;21.00;53.10;;;;;;1562508;74;712;-61
2023/02/28 08:09:43;;;;;;;;;;;21.00;53.00;;;;;;1565583;74;732;-62
2023/02/28 08:11:45;;;;;;;;;;;21.00;53.00;;;;;;1558556;74;1179;-62
2023/02/28 08:13:47;;;;;;;;;;;21.00;52.90;;;;;;1558191;74;684;-62
2023/02/28 08:15:49;;;;;;;;;;;21.00;52.30;;;;;;1569234;74;1587;-64
2023/02/28 08:17:51;;;;;;;;;;;21.00;50.60;;;;;;1548482;74;665;-61
2023/02/28 08:19:53;;;;;;;;;;;20.90;50.70;;;;;;1544465;74;645;-62
2023/02/28 08:21:55;;;;;;;;;;;20.70;51.20;;;;;;1556288;74;1124;-66
2023/02/28 08:23:57;;;;;;;;;;;20.60;51.80;;;;;;1552129;74;1943;-60
2023/02/28 08:25:59;;;;;;;;;;;20.60;52.10;;;;;;1570327;74;673;-62
2023/02/28 08:28:01;;;;;;;;;;;20.50;52.60;;;;;;1584126;74;742;-61
2023/02/28 08:30:03;;;;;;;;;;;20.70;52.60;;;;;;1571292;74;1539;-61
2023/02/28 08:32:06;;;;;;;;;;;20.70;52.40;;;;;;1566372;74;1151;-60
2023/02/28 08:34:08;;;;;;;;;;;20.90;52.30;;;;;;1566260;74;754;-60
2023/02/28 08:36:10;;;;;;;;;;;20.90;52.10;;;;;;1569966;74;773;-61
2023/02/28 08:38:12;;;;;;;;;;;20.90;52.00;;;;;;1561562;74;785;-61
2023/02/28 08:40:17;;;;;;;;;;;21.00;51.90;;;;;;1564135;74;905;-61
2023/02/28 08:42:17;;;;;;;;;;;21.00;51.90;;;;;;1562385;74;1732;-62
2023/02/28 08:44:19;;;;;;;;;;;20.90;51.80;;;;;;1566071;74;1942;-60
2023/02/28 08:46:21;;;;;;;;;;;21.00;51.80;;;;;;1566423;74;713;-61
2023/02/28 08:48:24;;;;;;;;;;;21.00;51.80;;;;;;1563721;74;729;-61
2023/02/28 08:50:25;;;;;;;;;;;21.00;51.80;;;;;;1563722;74;737;-60
2023/02/28 08:52:27;;;;;;;;;;;21.00;51.70;;;;;;1567881;74;1198;-61
2023/02/28 08:54:31;;;;;;;;;;;21.00;51.70;;;;;;1566303;74;693;-61
2023/02/28 08:56:33;;;;;;;;;;;21.10;51.80;;;;;;1556788;74;712;-61
2023/02/28 08:58:35;;;;;;;;;;;21.00;51.80;;;;;;1561506;74;1588;-61
2023/02/28 09:00:36;;;;;;;;;;;21.00;51.80;;;;;;1553333;74;1138;-60
2023/02/28 09:02:38;;;;;;;;;;;21.10;51.90;;;;;;1568390;74;775;-60
2023/02/28 09:04:41;;;;;;;;;;;21.00;51.80;;;;;;1564744;74;1950;-60
2023/02/28 09:06:44;;;;;;;;;;;21.00;51.70;;;;;;1566267;74;1107;-60
2023/02/28 09:08:46;;;;;;;;;;;21.00;51.70;;;;;;1567265;74;809;-60
2023/02/28 09:10:48;;;;;;;;;;;21.00;51.80;;;;;;1560294;74;1202;-60
2023/02/28 09:12:50;;;;;;;;;;;21.00;51.80;;;;;;1562604;74;1590;-61
2023/02/28 09:14:52;;;;;;;;;;;21.00;51.80;;;;;;1563383;74;694;-60
2023/02/28 09:16:54;;;;;;;;;;;21.00;51.80;;;;;;1562586;74;755;-60
2023/02/28 09:18:56;;;;;;;;;;;21.00;51.80;;;;;;1564053;74;669;-60
2023/02/28 09:20:58;;;;;;;;;;;21.10;51.80;;;;;;1566706;74;1107;-60
2023/02/28 09:23:00;;;;;;;;;;;21.00;51.80;;;;;;1564173;74;1914;-61
2023/02/28 09:25:02;;;;;;;;;;;21.00;51.80;;;;;;1562097;74;876;-61
2023/02/28 09:27:04;;;;;;;;;;;21.00;51.80;;;;;;1568024;74;1534;-61
2023/02/28 09:29:06;;;;;;;;;;;21.00;51.80;;;;;;1564492;74;687;-60
2023/02/28 09:31:10;;;;;;;;;;;21.00;51.80;;;;;;1563195;74;1136;-60
2023/02/28 09:33:11;;;;;;;;;;;21.00;51.80;;;;;;1566169;74;2020;-60
2023/02/28 09:35:16;;;;;;;;;;;21.00;51.80;;;;;;1569418;74;898;-61
2023/02/28 09:37:17;;;;;;;;;;;21.00;51.80;;;;;;1564123;74;981;-61
2023/02/28 09:39:19;;;;;;;;;;;21.00;51.80;;;;;;1566827;74;687;-61
2023/02/28 09:41:22;;;;;;;;;;;21.00;51.80;;;;;;1558947;74;1696;-61
2023/02/28 09:43:25;;;;;;;;;;;21.10;51.90;;;;;;1556790;74;1936;-60
2023/02/28 09:45:28;;;;;;;;;;;21.10;51.90;;;;;;1554614;74;1017;-61
2023/02/28 09:47:31;;;;;;;;;;;21.00;51.80;;;;;;1554018;74;697;-61
2023/02/28 09:49:34;;;;;;;;;;;21.10;51.90;;;;;;1566562;74;723;-61
2023/02/28 09:51:54;;;;;;;;;;;21.10;51.90;;;;;;1564144;74;1183;-61
2023/02/28 09:53:56;;;;;;;;;;;21.00;51.80;;;;;;1542079;74;1523;-61
2023/02/28 09:56:12;;;;;;;;;;;21.00;51.80;;;;;;1559414;74;736;-61
2023/02/28 09:58:18;;;;;;;;;;;21.00;51.90;;;;;;1555458;74;796;-61
2023/02/28 10:00:24;;;;;;;;;;;21.00;51.90;;;;;;1567142;74;1701;-60
2023/02/28 10:02:33;;;;;;;;;;;21.00;51.90;;;;;;1559063;74;1125;-60
2023/02/28 10:04:55;;;;;;;;;;;21.00;51.90;;;;;;1548276;74;1961;-62
2023/02/28 10:06:57;;;;;;;;;;;21.00;51.90;;;;;;1537719;75;1118;-60
2023/02/28 10:09:01;;;;;;;;;;;21.00;52.00;;;;;;1545473;75;1263;-61
2023/02/28 10:11:04;;;;;;;;;;;21.00;51.90;;;;;;1541307;75;1202;-60
2023/02/28 10:13:07;;;;;;;;;;;21.00;52.00;;;;;;1535929;75;705;-61
2023/02/28 10:15:09;;;;;;;;;;;21.00;52.00;;;;;;1533658;75;730;-61
2023/02/28 10:17:13;;;;;;;;;;;21.00;52.00;;;;;;1560548;75;767;-61
2023/02/28 10:19:20;;;;;;;;;;;21.00;52.00;;;;;;1543694;75;726;-60
2023/02/28 10:21:23;;;;;;;;;;;21.00;51.90;;;;;;1541851;75;1171;-61
2023/02/28 10:23:32;;;;;;;;;;;21.00;51.90;;;;;;1541238;75;1934;-61
2023/02/28 10:25:35;;;;;;;;;;;21.00;52.00;;;;;;1557002;75;1471;-61
2023/02/28 10:27:37;;;;;;;;;;;21.10;52.10;;;;;;1556877;75;691;-61
2023/02/28 10:29:39;;;;;;;;;;;21.00;52.00;;;;;;1555365;75;760;-61
2023/02/28 10:31:41;;;;;;;;;;;21.10;52.10;;;;;;1557589;75;1111;-64
2023/02/28 10:33:43;;;;;;;;;;;21.00;52.00;;;;;;1550398;75;678;-61
2023/02/28 10:35:45;;;;;;;;;;;21.00;52.00;;;;;;1539300;75;706;-61
2023/02/28 10:37:48;;;;;;;;;;;21.10;52.10;;;;;;1546752;75;1584;-61
2023/02/28 10:39:50;;;;;;;;;;;21.00;52.00;;;;;;1570332;75;678;-61
2023/02/28 10:41:52;;;;;;;;;;;21.00;51.90;;;;;;1552119;75;1146;-60
2023/02/28 10:43:54;;;;;;;;;;;21.00;51.90;;;;;;1539935;75;1931;-61
2023/02/28 10:45:57;;;;;;;;;;;21.10;52.00;;;;;;1541426;76;734;-60
2023/02/28 10:48:02;;;;;;;;;;;21.00;51.90;;;;;;1546038;75;684;-61
2023/02/28 10:50:04;;;;;;;;;;;21.10;52.00;;;;;;1549923;75;723;-61
2023/02/28 10:52:08;;;;;;;;;;;21.00;51.90;;;;;;1537329;76;1460;-60
2023/02/28 10:54:17;;;;;;;;;;;21.10;52.10;;;;;;1553915;75;730;-61
2023/02/28 10:56:21;;;;;;;;;;;21.00;51.90;;;;;;1553896;75;715;-60
2023/02/28 10:58:23;;;;;;;;;;;21.00;51.90;;;;;;1567683;74;698;-61
2023/02/28 11:00:25;;;;;;;;;;;21.10;52.00;;;;;;1568079;75;698;-60
2023/02/28 11:02:31;;;;;;;;;;;21.00;51.90;;;;;;1565132;75;1155;-61
2023/02/28 11:04:39;;;;;;;;;;;21.00;52.00;;;;;;1562466;75;1914;-61
2023/02/28 11:06:41;;;;;;;;;;;21.00;52.00;;;;;;1559175;75;1091;-61
2023/02/28 11:08:46;;;;;;;;;;;21.10;52.10;;;;;;1561707;75;722;-60
2023/02/28 11:10:49;;;;;;;;;;;21.00;52.00;;;;;;1555616;75;1202;-60
2023/02/28 11:12:51;;;;;;;;;;;21.00;52.00;;;;;;1544568;75;734;-61
2023/02/28 11:14:55;;;;;;;;;;;21.00;52.00;;;;;;1540081;76;999;-61
2023/02/28 11:16:59;;;;;;;;;;;21.00;52.00;;;;;;1564106;75;1598;-62
2023/02/28 11:19:01;;;;;;;;;;;21.10;52.10;;;;;;1552801;75;1351;-61
2023/02/28 11:21:03;;;;;;;;;;;21.10;52.10;;;;;;1554932;75;1140;-60
2023/02/28 11:23:04;;;;;;;;;;;21.10;52.00;;;;;;1567071;75;730;-60
2023/02/28 11:25:10;;;;;;;;;;;21.00;51.90;;;;;;1551327;75;1931;-59
2023/02/28 11:27:26;;;;;;;;;;;21.10;52.10;;;;;;1543314;75;636;-60
2023/02/28 11:29:31;;;;;;;;;;;21.00;52.00;;;;;;1553749;75;1685;-59
2023/02/28 11:31:33;;;;;;;;;;;21.00;52.00;;;;;;1549871;75;1144;-59
2023/02/28 11:33:44;;;;;;;;;;;21.00;52.00;;;;;;1548822;75;1349;-60
2023/02/28 11:35:46;;;;;;;;;;;21.10;52.10;;;;;;1537530;75;691;-60
2023/02/28 11:37:48;;;;;;;;;;;21.00;52.00;;;;;;1544070;75;715;-58
2023/02/28 11:39:50;;;;;;;;;;;21.10;52.10;;;;;;1544250;75;674;-59
2023/02/28 11:42:02;;;;;;;;;;;21.00;52.00;;;;;;1551905;75;1123;-61
2023/02/28 11:44:09;;;;;;;;;;;21.10;52.10;;;;;;1538537;75;1944;-57
2023/02/28 11:46:18;;;;;;;;;;;21.10;52.10;;;;;;1542267;75;1812;-60
2023/02/28 11:48:23;;;;;;;;;;;21.10;52.00;;;;;;1537955;75;1572;-63
2023/02/28 11:50:43;;;;;;;;;;;21.10;52.10;;;;;;1561491;75;701;-60
2023/02/28 11:52:53;;;;;;;;;;;21.10;52.10;;;;;;1536578;75;811;-61
2023/02/28 11:54:59;;;;;;;;;;;21.00;51.90;;;;;;1551974;75;662;-59
2023/02/28 11:57:03;;;;;;;;;;;21.00;52.00;;;;;;1536340;75;696;-59
2023/02/28 11:59:06;;;;;;;;;;;21.10;52.10;;;;;;1549945;75;769;-60
2023/02/28 12:01:28;;;;;;;;;;;21.10;52.00;;;;;;1560963;75;2252;-60
2023/02/28 12:03:41;;;;;;;;;;;21.10;52.10;;;;;;1548649;75;726;-60
2023/02/28 12:05:47;;;;;;;;;;;21.20;52.10;;;;;;1532129;75;2043;-60
2023/02/28 12:07:50;;;;;;;;;;;21.10;52.10;;;;;;1561446;75;1016;-61
2023/02/28 12:10:09;;;;;;;;;;;21.10;52.10;;;;;;1504682;76;1041;-60
2023/02/28 12:12:28;;;;;;;;;;;21.10;52.10;;;;;;1539932;75;1826;-61
2023/02/28 12:14:31;;;;;;;;;;;21.20;52.10;;;;;;1548273;75;2061;-58
2023/02/28 12:16:35;;;;;;;;;;;21.10;52.10;;;;;;1562647;75;665;-59